Time;durP1;ratioP1;P1;durP2;ratioP2;P2;SDS_P1;SDS_P2;PMS_P1;PMS_P2;Temp;Humidity;BMP_temperature;BMP_pressure;BME280_temperature;BME280_humidity;BME280_pressure;Samples;Min_cycle;Max_cycle;Signal;HPM_P1;HPM_P2
2023/12/28 00:00:43;;;;;;;3.67;1.08;;;9.10;99.90;;;;;;4997199;28;20514;-90
2023/12/28 00:03:08;;;;;;;3.22;1.30;;;9.20;99.90;;;;;;5011931;28;20037;-90
2023/12/28 00:05:34;;;;;;;7.40;3.40;;;9.30;99.90;;;;;;5006528;28;20603;-90
2023/12/28 00:08:00;;;;;;;3.85;1.33;;;9.40;99.90;;;;;;4995564;28;20069;-90
2023/12/28 00:10:27;;;;;;;2.03;1.00;;;9.40;99.90;;;;;;5030699;28;20135;-90
2023/12/28 00:12:53;;;;;;;3.08;1.40;;;9.50;99.90;;;;;;4996207;28;20045;-90
2023/12/28 00:15:19;;;;;;;5.55;1.52;;;9.50;99.90;;;;;;4996074;28;20048;-90
2023/12/28 00:17:45;;;;;;;3.25;1.15;;;9.60;99.90;;;;;;4996203;28;20041;-90
2023/12/28 00:20:11;;;;;;;4.72;1.52;;;9.60;99.90;;;;;;4996393;28;20037;-91
2023/12/28 00:22:37;;;;;;;4.57;1.58;;;9.60;99.90;;;;;;4996272;28;20560;-90
2023/12/28 00:25:04;;;;;;;3.90;1.42;;;9.60;99.90;;;;;;4995954;28;20128;-91
2023/12/28 00:27:30;;;;;;;4.43;1.27;;;9.70;99.90;;;;;;4996324;28;20041;-91
2023/12/28 00:29:55;;;;;;;2.92;1.08;;;9.70;99.90;;;;;;5012904;28;20041;-91
2023/12/28 00:32:21;;;;;;;5.97;1.88;;;9.80;99.90;;;;;;4996773;28;20041;-91
2023/12/28 00:34:46;;;;;;;4.93;1.85;;;9.80;99.90;;;;;;4997124;28;20048;-91
2023/12/28 00:37:12;;;;;;;5.60;1.95;;;9.70;99.90;;;;;;4997267;28;20136;-90
2023/12/28 00:39:39;;;;;;;6.38;1.65;;;9.80;99.90;;;;;;5012951;28;20132;-91
2023/12/28 00:42:04;;;;;;;4.72;1.75;;;9.80;99.90;;;;;;5011549;28;20041;-91
2023/12/28 00:44:30;;;;;;;5.07;1.38;;;9.80;99.90;;;;;;4995455;28;20095;-91
2023/12/28 00:46:56;;;;;;;5.60;2.28;;;9.80;99.90;;;;;;4995309;28;20080;-91
2023/12/28 00:49:21;;;;;;;8.10;3.15;;;9.80;99.90;;;;;;4995280;28;20042;-92
2023/12/28 00:51:47;;;;;;;2.25;1.20;;;9.80;99.90;;;;;;4995667;28;20073;-91
2023/12/28 00:54:13;;;;;;;5.88;1.58;;;9.80;99.90;;;;;;4994981;28;20041;-92
2023/12/28 00:56:38;;;;;;;5.53;1.77;;;9.80;99.90;;;;;;4995407;28;20124;-91
2023/12/28 00:59:05;;;;;;;5.35;1.40;;;9.80;99.90;;;;;;5012073;28;20072;-91
2023/12/28 01:01:30;;;;;;;5.25;1.77;;;9.70;99.90;;;;;;4995472;28;20076;-91
2023/12/28 01:03:56;;;;;;;4.78;1.60;;;9.80;99.90;;;;;;5027769;28;20112;-91
2023/12/28 01:06:22;;;;;;;3.55;1.35;;;9.80;99.90;;;;;;4994165;28;20419;-91
2023/12/28 01:08:47;;;;;;;3.65;1.88;;;9.70;99.90;;;;;;5028723;28;20100;-91
2023/12/28 01:11:13;;;;;;;4.13;1.42;;;9.70;99.90;;;;;;4995527;28;20647;-91
2023/12/28 01:13:39;;;;;;;4.65;1.63;;;9.70;99.90;;;;;;4995056;28;20192;-92
2023/12/28 01:16:05;;;;;;;8.40;1.85;;;9.60;99.90;;;;;;4995596;28;20029;-91
2023/12/28 01:18:31;;;;;;;6.05;1.42;;;9.60;99.90;;;;;;4995059;28;20497;-91
2023/12/28 01:20:56;;;;;;;5.82;1.98;;;9.60;99.90;;;;;;4995230;28;20054;-91
2023/12/28 01:23:22;;;;;;;4.20;1.77;;;9.60;99.90;;;;;;5010624;28;20468;-91
2023/12/28 01:25:48;;;;;;;4.88;1.60;;;9.60;99.90;;;;;;5010974;28;20080;-91
2023/12/28 01:28:13;;;;;;;5.18;1.85;;;9.60;99.90;;;;;;4994664;28;20412;-89
2023/12/28 01:30:39;;;;;;;8.32;2.28;;;9.60;99.90;;;;;;5011069;28;20488;-89
2023/12/28 01:33:05;;;;;;;5.40;2.05;;;9.60;99.90;;;;;;4995415;28;20038;-91
2023/12/28 01:35:30;;;;;;;6.53;2.22;;;9.50;99.90;;;;;;4995585;28;20065;-91
2023/12/28 01:37:57;;;;;;;7.05;1.67;;;9.50;99.90;;;;;;4995642;28;20041;-92
2023/12/28 01:40:23;;;;;;;3.22;1.10;;;9.50;99.90;;;;;;5011456;28;20083;-92
2023/12/28 01:42:48;;;;;;;6.15;2.22;;;9.50;99.90;;;;;;4995573;28;20520;-92
2023/12/28 01:45:14;;;;;;;4.80;1.40;;;9.50;99.90;;;;;;5028727;28;20500;-92
2023/12/28 01:47:40;;;;;;;5.47;1.73;;;9.50;99.90;;;;;;4998348;28;20136;-91
2023/12/28 01:50:06;;;;;;;4.60;1.55;;;9.50;99.90;;;;;;4998698;28;20049;-91
2023/12/28 01:52:32;;;;;;;3.53;1.60;;;9.50;99.90;;;;;;5015257;28;20065;-91
2023/12/28 01:54:58;;;;;;;7.57;2.08;;;9.50;99.90;;;;;;5014911;28;20126;-91
2023/12/28 01:57:24;;;;;;;5.35;1.70;;;9.50;99.90;;;;;;5014263;28;20489;-91
2023/12/28 01:59:51;;;;;;;5.18;2.00;;;9.50;99.90;;;;;;5014897;28;20094;-91
2023/12/28 02:02:17;;;;;;;3.13;1.23;;;9.40;99.90;;;;;;4998872;28;20045;-91
2023/12/28 02:04:44;;;;;;;5.20;2.33;;;9.40;99.90;;;;;;5011709;28;20041;-91
2023/12/28 02:07:12;;;;;;;5.90;2.00;;;9.40;99.90;;;;;;5013785;28;20530;-91
2023/12/28 02:09:38;;;;;;;5.50;1.88;;;9.40;99.90;;;;;;4999181;28;20400;-91
2023/12/28 02:12:04;;;;;;;5.97;1.90;;;9.40;99.90;;;;;;5014714;28;20560;-91
2023/12/28 02:14:30;;;;;;;4.90;1.73;;;9.50;99.90;;;;;;5014287;28;20084;-90
2023/12/28 02:17:07;;;;;;;6.03;1.83;;;9.50;99.90;;;;;;5014366;28;20500;-91
2023/12/28 02:19:42;;;;;;;5.45;2.13;;;9.50;99.90;;;;;;4998052;28;20045;-91
2023/12/28 02:22:09;;;;;;;6.18;1.80;;;9.50;99.90;;;;;;4998305;28;20041;-91
2023/12/28 02:25:07;;;;;;;4.70;1.85;;;9.50;99.90;;;;;;5014133;28;20041;-90
2023/12/28 02:27:41;;;;;;;6.43;1.75;;;9.50;99.90;;;;;;5014997;28;20037;-90
2023/12/28 02:30:08;;;;;;;5.53;1.95;;;9.50;99.90;;;;;;4998105;28;20048;-91
2023/12/28 02:32:49;;;;;;;5.65;2.13;;;9.50;99.90;;;;;;4998393;28;20044;-91
2023/12/28 02:35:29;;;;;;;5.28;2.38;;;9.50;99.90;;;;;;4997839;28;20080;-91
2023/12/28 02:37:59;;;;;;;4.13;1.45;;;9.60;99.90;;;;;;4997923;28;20041;-90
2023/12/28 02:40:26;;;;;;;8.15;2.20;;;9.60;99.90;;;;;;4997379;28;20515;-90
2023/12/28 02:42:52;;;;;;;2.53;1.10;;;9.60;99.90;;;;;;4997789;28;20052;-91
2023/12/28 02:45:18;;;;;;;6.78;2.00;;;9.60;99.90;;;;;;5014877;28;20120;-91
2023/12/28 02:47:44;;;;;;;6.25;1.95;;;9.60;99.90;;;;;;4998140;28;20050;-91
2023/12/28 02:50:10;;;;;;;3.13;1.10;;;9.60;99.90;;;;;;5014261;28;20043;-91
2023/12/28 02:52:35;;;;;;;5.07;1.80;;;9.60;99.90;;;;;;5014221;28;20042;-91
2023/12/28 02:55:01;;;;;;;7.30;2.10;;;9.60;99.90;;;;;;4998763;28;20059;-92
2023/12/28 02:57:27;;;;;;;4.03;1.30;;;9.60;99.90;;;;;;5015117;28;20040;-91
2023/12/28 02:59:52;;;;;;;7.22;2.22;;;9.60;99.90;;;;;;4998112;28;20045;-91
2023/12/28 03:02:18;;;;;;;3.13;1.45;;;9.60;99.90;;;;;;4997905;28;20049;-91
2023/12/28 03:04:44;;;;;;;6.07;1.83;;;9.60;99.90;;;;;;5009408;28;20041;-91
2023/12/28 03:07:09;;;;;;;8.18;2.58;;;9.60;99.90;;;;;;4997151;28;20030;-91
2023/12/28 03:09:38;;;;;;;4.45;1.63;;;9.70;99.90;;;;;;4998148;28;20443;-90
2023/12/28 03:12:04;;;;;;;4.60;1.63;;;9.70;99.90;;;;;;4997425;28;20440;-91
2023/12/28 03:14:30;;;;;;;7.60;2.10;;;9.70;99.90;;;;;;5031525;28;20045;-91
2023/12/28 03:16:55;;;;;;;3.90;1.55;;;9.80;99.90;;;;;;4997893;28;20041;-91
2023/12/28 03:19:21;;;;;;;3.95;1.88;;;9.70;99.90;;;;;;5014199;28;20404;-91
2023/12/28 03:21:46;;;;;;;6.13;2.08;;;9.80;99.90;;;;;;5013736;28;20120;-91
2023/12/28 03:24:12;;;;;;;6.78;1.98;;;9.80;99.90;;;;;;4997100;28;20088;-90
2023/12/28 03:26:38;;;;;;;3.80;1.17;;;9.80;99.90;;;;;;4997683;28;20092;-91
2023/12/28 03:29:05;;;;;;;6.28;2.33;;;9.90;99.90;;;;;;5013690;28;20041;-91
2023/12/28 03:31:31;;;;;;;5.15;1.65;;;9.90;99.90;;;;;;5014081;28;20045;-91
2023/12/28 03:33:57;;;;;;;8.32;1.77;;;9.90;99.90;;;;;;5013393;28;20091;-91
2023/12/28 03:36:23;;;;;;;4.75;1.45;;;9.90;99.90;;;;;;4997760;28;20450;-90
2023/12/28 03:38:49;;;;;;;7.47;2.08;;;9.90;99.90;;;;;;4997490;28;20045;-91
2023/12/28 03:41:18;;;;;;;7.22;2.03;;;9.90;99.90;;;;;;5013708;28;20406;-91
2023/12/28 03:43:45;;;;;;;6.60;2.03;;;10.00;99.90;;;;;;4996818;28;20504;-90
2023/12/28 03:46:11;;;;;;;5.50;1.60;;;10.00;99.90;;;;;;5013235;28;20038;-90
2023/12/28 03:48:37;;;;;;;3.40;1.42;;;10.00;99.90;;;;;;4997199;28;20037;-90
2023/12/28 03:51:03;;;;;;;4.82;1.67;;;10.00;99.90;;;;;;4997257;28;20029;-91
2023/12/28 03:53:31;;;;;;;5.03;1.30;;;10.00;99.90;;;;;;4996647;28;20073;-91
2023/12/28 03:55:57;;;;;;;5.88;2.47;;;10.00;99.90;;;;;;4997311;28;20037;-91
2023/12/28 03:58:23;;;;;;;5.10;1.45;;;10.00;99.90;;;;;;4996898;28;20077;-91
2023/12/28 04:00:49;;;;;;;3.80;1.77;;;10.10;99.90;;;;;;4997063;28;20084;-91
2023/12/28 04:03:14;;;;;;;8.68;1.85;;;10.10;99.90;;;;;;4996381;28;20516;-91
2023/12/28 04:05:40;;;;;;;5.10;1.52;;;10.10;99.90;;;;;;4994856;28;20087;-90
2023/12/28 04:08:07;;;;;;;7.20;1.83;;;10.20;99.90;;;;;;5011585;28;20037;-91
2023/12/28 04:10:33;;;;;;;4.18;1.58;;;10.20;99.90;;;;;;4993015;28;20098;-91
2023/12/28 04:13:00;;;;;;;5.38;1.77;;;10.20;99.90;;;;;;4994750;28;20566;-91
2023/12/28 04:15:26;;;;;;;4.25;1.25;;;10.20;99.90;;;;;;4997066;28;20037;-91
2023/12/28 04:17:52;;;;;;;7.35;1.88;;;10.20;99.90;;;;;;5012965;28;20053;-91
2023/12/28 04:20:18;;;;;;;9.68;1.75;;;10.20;99.90;;;;;;5020993;28;20125;-91
2023/12/28 04:22:44;;;;;;;5.10;1.85;;;10.20;99.90;;;;;;4998582;28;20041;-91
2023/12/28 04:25:10;;;;;;;3.47;1.20;;;10.20;99.90;;;;;;4998469;28;20041;-91
2023/12/28 04:27:36;;;;;;;5.53;1.40;;;10.20;99.90;;;;;;4998363;28;20064;-91
2023/12/28 04:30:02;;;;;;;6.32;1.33;;;10.20;99.90;;;;;;4998094;28;20033;-91
2023/12/28 04:32:28;;;;;;;7.93;1.52;;;10.30;99.90;;;;;;5032492;28;20041;-91
2023/12/28 04:34:54;;;;;;;4.57;1.38;;;10.30;99.90;;;;;;5013918;28;20381;-91
2023/12/28 04:37:19;;;;;;;4.00;1.25;;;10.30;99.90;;;;;;4996638;28;20061;-91
2023/12/28 04:39:45;;;;;;;3.63;1.33;;;10.30;99.90;;;;;;5030480;28;20079;-92
2023/12/28 04:42:11;;;;;;;3.92;1.42;;;10.40;99.90;;;;;;4996500;28;20041;-91
2023/12/28 04:44:40;;;;;;;6.43;1.38;;;10.40;99.90;;;;;;4995830;28;20488;-91
2023/12/28 04:47:06;;;;;;;5.03;1.85;;;10.30;99.90;;;;;;5012553;28;20049;-90
2023/12/28 04:49:31;;;;;;;4.53;1.23;;;10.40;99.90;;;;;;4996482;28;20469;-90
2023/12/28 04:51:57;;;;;;;4.90;1.70;;;10.40;99.90;;;;;;4996058;28;20124;-91
2023/12/28 04:54:23;;;;;;;5.13;1.55;;;10.40;99.90;;;;;;5011927;28;20037;-91
2023/12/28 04:56:48;;;;;;;6.95;1.65;;;10.40;99.90;;;;;;4996475;28;20103;-91
2023/12/28 04:59:14;;;;;;;4.20;1.27;;;10.40;99.90;;;;;;4995481;28;20034;-91
2023/12/28 05:01:43;;;;;;;4.35;1.13;;;10.40;99.90;;;;;;4995260;28;20041;-91
2023/12/28 05:04:10;;;;;;;4.03;1.40;;;10.40;99.90;;;;;;5010306;28;20069;-91
2023/12/28 05:06:36;;;;;;;9.40;1.80;;;10.30;99.90;;;;;;5010801;28;20124;-91
2023/12/28 05:09:02;;;;;;;10.45;1.63;;;10.30;99.90;;;;;;4995292;28;20584;-91
2023/12/28 05:11:27;;;;;;;5.07;1.52;;;10.30;99.90;;;;;;4995926;28;20033;-91
2023/12/28 05:13:53;;;;;;;9.15;1.98;;;10.30;99.90;;;;;;5012125;28;20059;-92
2023/12/28 05:16:20;;;;;;;6.00;1.60;;;10.40;99.90;;;;;;5012345;28;20067;-91
2023/12/28 05:18:46;;;;;;;7.30;1.60;;;10.40;99.90;;;;;;5013462;28;20053;-92
2023/12/28 05:21:12;;;;;;;4.38;1.33;;;10.40;99.90;;;;;;4996827;28;20157;-91
2023/12/28 05:23:38;;;;;;;5.00;1.45;;;10.50;99.90;;;;;;4999586;28;20045;-91
2023/12/28 05:26:04;;;;;;;6.25;1.33;;;10.50;99.90;;;;;;4999911;28;20044;-91
2023/12/28 05:28:30;;;;;;;4.68;1.20;;;10.50;99.90;;;;;;4999459;28;20041;-91
2023/12/28 05:30:56;;;;;;;10.23;1.67;;;10.50;99.90;;;;;;5015858;28;20441;-91
2023/12/28 05:33:22;;;;;;;5.47;1.80;;;10.60;99.90;;;;;;5015456;28;20527;-92
2023/12/28 05:35:48;;;;;;;3.60;1.05;;;10.60;99.90;;;;;;4999598;28;20046;-92
2023/12/28 05:38:14;;;;;;;7.97;1.88;;;10.60;99.90;;;;;;5033656;28;20044;-92
2023/12/28 05:40:39;;;;;;;2.95;1.30;;;10.60;99.90;;;;;;5015996;28;20472;-92
2023/12/28 05:43:05;;;;;;;5.03;1.27;;;10.60;99.90;;;;;;4998738;28;20404;-92
2023/12/28 05:45:31;;;;;;;2.40;0.88;;;10.60;99.90;;;;;;4999729;28;20080;-92
2023/12/28 05:47:57;;;;;;;11.60;1.75;;;10.60;99.90;;;;;;4999570;28;20728;-92
2023/12/28 05:50:22;;;;;;;7.95;1.45;;;10.70;99.90;;;;;;4998861;28;20667;-92
2023/12/28 05:52:48;;;;;;;6.65;1.52;;;10.70;99.90;;;;;;5015964;28;20033;-92
2023/12/28 05:55:14;;;;;;;7.35;2.30;;;10.70;99.90;;;;;;5015465;28;20045;-92
2023/12/28 05:57:39;;;;;;;9.60;2.40;;;10.70;99.90;;;;;;5033372;28;20037;-92
2023/12/28 06:00:07;;;;;;;3.72;1.25;;;10.70;99.90;;;;;;4998221;28;20464;-91
2023/12/28 06:02:32;;;;;;;9.40;1.83;;;10.70;99.90;;;;;;5015031;28;20053;-91
2023/12/28 06:04:58;;;;;;;5.18;1.00;;;10.80;99.90;;;;;;5011934;28;20041;-92
2023/12/28 06:07:24;;;;;;;4.15;0.88;;;10.80;99.90;;;;;;4997746;28;20037;-91
2023/12/28 06:09:50;;;;;;;7.80;2.28;;;10.80;99.90;;;;;;5015410;28;20095;-91
2023/12/28 06:12:15;;;;;;;6.65;1.50;;;10.80;99.90;;;;;;5015412;28;20037;-91
2023/12/28 06:14:41;;;;;;;9.25;2.72;;;10.80;99.90;;;;;;4998870;28;20571;-91
2023/12/28 06:17:07;;;;;;;7.25;1.77;;;10.80;99.90;;;;;;5015076;28;20711;-92
2023/12/28 06:19:33;;;;;;;10.80;1.80;;;10.90;99.90;;;;;;4998843;28;20045;-92
2023/12/28 06:21:58;;;;;;;2.83;1.23;;;10.90;99.90;;;;;;5014728;28;20065;-92
2023/12/28 06:24:24;;;;;;;11.10;1.23;;;10.90;99.90;;;;;;4998009;28;20037;-91
2023/12/28 06:26:50;;;;;;;8.30;1.50;;;10.90;99.90;;;;;;5014817;28;20041;-90
2023/12/28 06:29:16;;;;;;;3.45;0.95;;;10.90;99.90;;;;;;4998912;28;20046;-92
2023/12/28 06:31:42;;;;;;;7.25;1.45;;;10.90;99.90;;;;;;4998530;28;20500;-92
2023/12/28 06:34:08;;;;;;;7.38;1.35;;;11.00;99.90;;;;;;4998211;28;20115;-92
2023/12/28 06:36:34;;;;;;;9.50;1.08;;;11.00;99.90;;;;;;5014964;28;20069;-91
2023/12/28 06:38:59;;;;;;;12.93;1.27;;;11.00;99.90;;;;;;5014511;28;20041;-91
2023/12/28 06:41:26;;;;;;;16.35;2.30;;;11.10;99.90;;;;;;4998850;28;20561;-91
2023/12/28 06:43:52;;;;;;;6.30;1.30;;;11.10;99.90;;;;;;4997727;28;20041;-91
2023/12/28 06:46:18;;;;;;;3.88;1.30;;;11.10;99.90;;;;;;4997541;28;20095;-92
2023/12/28 06:48:44;;;;;;;7.43;1.33;;;11.10;99.90;;;;;;5032277;28;20044;-91
2023/12/28 06:51:15;;;;;;;12.02;1.58;;;11.10;99.90;;;;;;5031173;28;20037;-91
2023/12/28 06:53:41;;;;;;;4.07;1.17;;;11.10;99.90;;;;;;5013805;28;20064;-91
2023/12/28 06:56:07;;;;;;;5.60;1.35;;;11.10;99.90;;;;;;4998215;28;20492;-91
2023/12/28 06:58:33;;;;;;;7.72;2.60;;;11.10;99.90;;;;;;4997559;28;20041;-92
2023/12/28 07:00:58;;;;;;;5.57;1.00;;;11.10;99.90;;;;;;5014369;28;20038;-92
2023/12/28 07:03:25;;;;;;;14.60;1.50;;;11.20;99.90;;;;;;4996918;28;20565;-91
2023/12/28 07:05:51;;;;;;;6.03;1.52;;;11.20;99.90;;;;;;5014198;28;20037;-92
2023/12/28 07:08:17;;;;;;;7.22;1.67;;;11.10;99.90;;;;;;5014158;28;20424;-91
2023/12/28 07:10:42;;;;;;;5.32;1.35;;;11.10;99.90;;;;;;4998033;28;20033;-92
2023/12/28 07:13:08;;;;;;;11.35;1.00;;;11.20;99.90;;;;;;4997744;28;20048;-91
2023/12/28 07:15:34;;;;;;;15.18;3.60;;;11.10;99.90;;;;;;5013969;28;20057;-90
2023/12/28 07:17:59;;;;;;;8.70;1.90;;;11.20;99.90;;;;;;4997885;28;20069;-90
2023/12/28 07:20:25;;;;;;;7.07;1.27;;;11.20;99.90;;;;;;4997228;28;20558;-91
2023/12/28 07:22:51;;;;;;;8.88;1.98;;;11.20;99.90;;;;;;4996950;28;20417;-91
2023/12/28 07:25:16;;;;;;;7.95;1.92;;;11.20;99.90;;;;;;5013797;28;20041;-90
2023/12/28 07:27:42;;;;;;;11.75;1.60;;;11.20;99.90;;;;;;5014065;28;20107;-91
2023/12/28 07:30:08;;;;;;;8.57;2.10;;;11.20;99.90;;;;;;4997213;28;20037;-91
2023/12/28 07:32:34;;;;;;;8.98;2.05;;;11.20;99.90;;;;;;5010017;28;20034;-91
2023/12/28 07:35:00;;;;;;;11.63;2.17;;;11.20;99.90;;;;;;4997263;28;20048;-91
2023/12/28 07:37:25;;;;;;;6.13;1.60;;;11.20;99.90;;;;;;4997931;28;20041;-91
2023/12/28 07:39:52;;;;;;;13.40;1.90;;;11.20;99.90;;;;;;4998837;28;20560;-91
2023/12/28 07:42:17;;;;;;;7.43;1.83;;;11.20;99.90;;;;;;4999358;28;20489;-91
2023/12/28 07:44:43;;;;;;;6.05;1.38;;;11.10;99.90;;;;;;4996991;28;20080;-91
2023/12/28 07:47:09;;;;;;;13.90;1.63;;;11.20;99.90;;;;;;4997189;28;20041;-91
2023/12/28 07:49:34;;;;;;;21.70;4.63;;;11.10;99.90;;;;;;4996955;28;20040;-91
2023/12/28 07:52:00;;;;;;;9.55;1.33;;;11.20;99.90;;;;;;5013240;28;20045;-91
2023/12/28 07:54:25;;;;;;;9.00;1.83;;;11.20;99.90;;;;;;4996920;28;20041;-91
2023/12/28 07:56:51;;;;;;;6.13;1.25;;;11.20;99.90;;;;;;4996449;28;20559;-90
2023/12/28 07:59:17;;;;;;;6.63;1.15;;;11.20;99.90;;;;;;5013496;28;20033;-91
2023/12/28 08:01:42;;;;;;;5.15;1.20;;;11.20;99.90;;;;;;4996957;28;20620;-91
2023/12/28 08:04:08;;;;;;;6.65;1.65;;;11.30;99.90;;;;;;5006687;28;20497;-91
2023/12/28 08:06:34;;;;;;;7.03;1.70;;;11.30;99.90;;;;;;5000823;28;20130;-91
2023/12/28 08:09:03;;;;;;;9.48;1.55;;;11.20;99.90;;;;;;5008368;28;20466;-91
2023/12/28 08:11:28;;;;;;;4.35;1.33;;;11.30;99.90;;;;;;4996390;28;20040;-92
2023/12/28 08:13:54;;;;;;;6.60;1.73;;;11.20;99.90;;;;;;5011046;28;20042;-91
2023/12/28 08:16:20;;;;;;;6.65;1.60;;;11.20;99.90;;;;;;5012882;28;20051;-91
2023/12/28 08:18:46;;;;;;;8.30;1.60;;;11.20;99.90;;;;;;4996021;28;20034;-91
2023/12/28 08:21:11;;;;;;;9.50;1.75;;;11.20;99.90;;;;;;5030208;28;20080;-92
2023/12/28 08:23:37;;;;;;;13.43;2.22;;;11.20;99.90;;;;;;5011970;28;20122;-92
2023/12/28 08:26:03;;;;;;;9.38;1.30;;;11.30;99.90;;;;;;4996091;28;20049;-91
2023/12/28 08:28:28;;;;;;;11.68;1.83;;;11.20;99.90;;;;;;5012330;28;20044;-92
2023/12/28 08:30:56;;;;;;;6.78;1.55;;;11.20;99.90;;;;;;4996124;28;20038;-91
2023/12/28 08:33:22;;;;;;;5.38;1.38;;;11.20;99.90;;;;;;4995940;28;20037;-91
2023/12/28 08:35:47;;;;;;;10.70;1.92;;;11.30;99.90;;;;;;4996073;28;20030;-91
2023/12/28 08:38:13;;;;;;;6.78;1.88;;;11.30;99.90;;;;;;5012465;28;20041;-91
2023/12/28 08:40:39;;;;;;;5.38;1.42;;;11.30;99.90;;;;;;5030488;28;20104;-91
2023/12/28 08:43:04;;;;;;;12.30;2.33;;;11.30;99.90;;;;;;5011932;28;20055;-90
2023/12/28 08:45:30;;;;;;;4.43;1.10;;;11.30;99.90;;;;;;4996684;28;20072;-89
2023/12/28 08:47:56;;;;;;;8.95;1.45;;;11.30;99.90;;;;;;4996205;28;20072;-91
2023/12/28 08:50:22;;;;;;;7.57;1.30;;;11.30;99.90;;;;;;5012258;28;20034;-91
2023/12/28 08:52:48;;;;;;;8.77;1.33;;;11.30;99.90;;;;;;5030137;28;20029;-92
2023/12/28 08:55:14;;;;;;;18.63;2.78;;;11.30;99.90;;;;;;5007660;28;20282;-91
2023/12/28 08:57:39;;;;;;;13.05;2.05;;;11.30;99.90;;;;;;5010216;28;20124;-90
2023/12/28 09:00:06;;;;;;;13.05;2.35;;;11.30;99.90;;;;;;5010976;28;20523;-90
2023/12/28 09:02:32;;;;;;;8.85;2.15;;;11.40;99.90;;;;;;4994252;28;20074;-90
2023/12/28 09:05:00;;;;;;;9.68;1.52;;;11.40;99.90;;;;;;4994781;28;20038;-90
2023/12/28 09:07:26;;;;;;;19.95;2.00;;;11.40;99.90;;;;;;5010370;28;20041;-91
2023/12/28 09:09:52;;;;;;;12.05;2.03;;;11.40;99.90;;;;;;4994355;28;20460;-92
2023/12/28 09:12:18;;;;;;;8.00;1.63;;;11.40;99.90;;;;;;4994748;28;20077;-91
2023/12/28 09:14:44;;;;;;;8.57;1.63;;;11.40;99.90;;;;;;4993928;28;20148;-91
2023/12/28 09:17:11;;;;;;;13.05;2.03;;;11.40;99.90;;;;;;5028526;28;20121;-90
2023/12/28 09:19:37;;;;;;;11.48;1.85;;;11.40;99.90;;;;;;5010238;28;20041;-91
2023/12/28 09:22:04;;;;;;;8.85;1.67;;;11.40;99.90;;;;;;5009196;28;20040;-91
2023/12/28 09:24:30;;;;;;;8.10;1.45;;;11.40;99.90;;;;;;5028250;28;20109;-90
2023/12/28 09:26:56;;;;;;;7.95;2.35;;;11.40;99.90;;;;;;4993210;28;20039;-90
2023/12/28 09:29:21;;;;;;;5.93;1.25;;;11.30;99.90;;;;;;4994352;28;20046;-91
2023/12/28 09:31:47;;;;;;;6.93;1.23;;;11.30;99.90;;;;;;5028623;28;20508;-91
2023/12/28 09:34:16;;;;;;;8.45;1.27;;;11.40;99.90;;;;;;5028368;28;20398;-91
2023/12/28 09:36:42;;;;;;;11.93;2.30;;;11.40;99.90;;;;;;5010235;28;20596;-91
2023/12/28 09:39:09;;;;;;;8.55;1.58;;;11.40;99.90;;;;;;4993131;28;20133;-90
2023/12/28 09:41:39;;;;;;;10.55;1.63;;;11.40;99.90;;;;;;5026454;28;20056;-89
2023/12/28 09:44:24;;;;;;;7.53;1.27;;;11.40;99.90;;;;;;5025174;28;20052;-92
2023/12/28 09:46:53;;;;;;;7.97;1.38;;;11.40;99.90;;;;;;4994284;28;20116;-91
2023/12/28 09:49:21;;;;;;;4.95;1.10;;;11.40;99.90;;;;;;4993199;28;20497;-91
2023/12/28 09:51:47;;;;;;;12.82;3.55;;;11.40;99.90;;;;;;4994266;28;20041;-91
2023/12/28 09:54:13;;;;;;;5.97;1.20;;;11.40;99.90;;;;;;4990276;28;20116;-91
2023/12/28 09:56:40;;;;;;;9.82;3.63;;;11.40;99.90;;;;;;4994735;28;20129;-91
2023/12/28 09:59:07;;;;;;;23.52;5.35;;;11.40;99.90;;;;;;5009795;28;20033;-91
2023/12/28 10:01:36;;;;;;;4.60;1.05;;;11.50;99.90;;;;;;4994167;28;20096;-90
2023/12/28 10:04:05;;;;;;;6.30;1.42;;;11.50;99.90;;;;;;5011689;28;20067;-91
2023/12/28 10:06:30;;;;;;;9.65;1.70;;;11.40;99.90;;;;;;4996646;28;20029;-91
2023/12/28 10:08:56;;;;;;;11.20;2.15;;;11.40;99.90;;;;;;5024279;28;20095;-92
2023/12/28 10:11:22;;;;;;;8.05;1.35;;;11.40;99.90;;;;;;5003728;28;20408;-90
2023/12/28 10:13:50;;;;;;;12.75;2.20;;;11.40;99.90;;;;;;5008937;28;20134;-91
2023/12/28 10:16:17;;;;;;;11.05;1.75;;;11.40;99.90;;;;;;5010238;28;20045;-91
2023/12/28 10:18:43;;;;;;;8.82;1.48;;;11.40;99.90;;;;;;5014962;28;20041;-91
2023/12/28 10:21:09;;;;;;;8.63;1.80;;;11.40;99.90;;;;;;5032641;28;20405;-91
2023/12/28 10:23:36;;;;;;;7.80;1.02;;;11.40;99.90;;;;;;4999175;28;20037;-91
2023/12/28 10:26:04;;;;;;;5.90;1.55;;;11.50;99.90;;;;;;4998968;28;20124;-91
2023/12/28 10:28:34;;;;;;;6.18;1.58;;;11.40;99.90;;;;;;4998975;28;20100;-91
2023/12/28 10:31:01;;;;;;;10.00;2.00;;;11.40;99.90;;;;;;4998691;28;20034;-91
2023/12/28 10:33:26;;;;;;;10.95;2.42;;;11.40;99.90;;;;;;5014679;28;20045;-92
2023/12/28 10:35:53;;;;;;;9.38;1.92;;;11.50;99.90;;;;;;4997899;28;20042;-91
2023/12/28 10:38:20;;;;;;;13.85;2.00;;;11.40;99.90;;;;;;5014112;28;20045;-90
2023/12/28 10:40:48;;;;;;;13.45;1.98;;;11.40;99.90;;;;;;4998139;28;20053;-90
2023/12/28 10:43:19;;;;;;;11.27;2.20;;;11.40;99.90;;;;;;5031396;28;20095;-91
2023/12/28 10:45:52;;;;;;;11.73;3.22;;;11.40;99.90;;;;;;5032419;28;20037;-91
2023/12/28 10:48:26;;;;;;;11.27;2.97;;;11.40;99.90;;;;;;5014390;28;20516;-90
2023/12/28 10:50:52;;;;;;;6.78;1.15;;;11.40;99.90;;;;;;5014849;28;20037;-91
2023/12/28 10:53:36;;;;;;;7.05;1.45;;;11.40;99.90;;;;;;5014093;28;20079;-90
2023/12/28 10:56:07;;;;;;;5.07;1.83;;;11.40;99.90;;;;;;5043971;28;20045;-91
2023/12/28 10:59:00;;;;;;;18.88;5.07;;;11.40;99.90;;;;;;5018507;28;20400;-91
2023/12/28 11:01:35;;;;;;;22.27;6.10;;;11.50;99.90;;;;;;4988968;28;20038;-90
2023/12/28 11:04:30;;;;;;;11.30;2.22;;;11.50;99.90;;;;;;5011830;28;20040;-90
2023/12/28 11:06:58;;;;;;;6.68;1.45;;;11.50;99.90;;;;;;5015578;28;20053;-91
2023/12/28 11:09:26;;;;;;;9.02;1.65;;;11.40;99.90;;;;;;5014530;28;20121;-89
2023/12/28 11:11:54;;;;;;;11.18;1.98;;;11.40;99.90;;;;;;5021719;28;20038;-91
2023/12/28 11:14:20;;;;;;;3.28;0.85;;;11.30;99.90;;;;;;4992009;28;20127;-90
2023/12/28 11:16:47;;;;;;;6.63;1.33;;;11.30;99.90;;;;;;4992995;28;20490;-91
2023/12/28 11:19:13;;;;;;;8.00;1.70;;;11.30;99.90;;;;;;4994420;28;20045;-91
2023/12/28 11:21:39;;;;;;;4.80;0.93;;;11.20;99.90;;;;;;4997683;28;20033;-90
2023/12/28 11:24:06;;;;;;;15.07;2.42;;;11.20;99.90;;;;;;4997435;28;20045;-91
2023/12/28 11:26:32;;;;;;;4.05;1.15;;;11.20;99.90;;;;;;5014257;28;20045;-90
2023/12/28 11:29:04;;;;;;;7.13;1.48;;;11.20;99.90;;;;;;4997706;28;20129;-91
2023/12/28 11:31:37;;;;;;;6.40;1.83;;;11.20;99.90;;;;;;5014027;28;20071;-91
2023/12/28 11:34:07;;;;;;;8.23;1.40;;;11.30;99.90;;;;;;5012989;28;20045;-91
2023/12/28 11:36:35;;;;;;;11.65;2.35;;;11.30;99.90;;;;;;5011399;28;20033;-90
2023/12/28 11:39:03;;;;;;;4.75;1.20;;;11.30;99.90;;;;;;5010823;28;20033;-91
2023/12/28 11:41:32;;;;;;;12.88;3.58;;;11.30;99.90;;;;;;5013806;28;20036;-91
2023/12/28 11:44:05;;;;;;;7.22;1.77;;;11.40;99.90;;;;;;4996487;28;20048;-91
2023/12/28 11:46:31;;;;;;;5.43;1.67;;;11.30;99.90;;;;;;4993996;28;20134;-91
2023/12/28 11:49:04;;;;;;;3.88;0.55;;;11.40;99.90;;;;;;5013101;28;20128;-91
2023/12/28 11:51:30;;;;;;;12.10;1.52;;;11.40;99.90;;;;;;5006232;28;20512;-91
2023/12/28 11:53:58;;;;;;;9.60;1.75;;;11.30;99.90;;;;;;5013349;28;20077;-91
2023/12/28 11:56:25;;;;;;;12.43;2.38;;;11.30;99.90;;;;;;5009294;28;20041;-91
2023/12/28 11:58:51;;;;;;;6.35;1.38;;;11.30;99.90;;;;;;4992896;28;20044;-93
2023/12/28 12:01:17;;;;;;;9.43;1.58;;;11.30;99.90;;;;;;4995845;28;20120;-93
2023/12/28 12:03:43;;;;;;;8.77;1.27;;;11.30;99.90;;;;;;4996578;28;20133;-91
2023/12/28 12:06:09;;;;;;;5.05;1.08;;;11.30;99.90;;;;;;4996746;28;20041;-91
2023/12/28 12:08:35;;;;;;;10.27;1.58;;;11.20;99.90;;;;;;4997080;28;20103;-90
2023/12/28 12:11:03;;;;;;;7.90;1.65;;;11.20;99.90;;;;;;4996763;28;20073;-90
2023/12/28 12:13:30;;;;;;;6.85;1.83;;;11.20;99.90;;;;;;4995768;28;20029;-92
2023/12/28 12:15:56;;;;;;;8.07;1.60;;;11.10;99.90;;;;;;4996159;28;20052;-91
2023/12/28 12:18:22;;;;;;;11.10;1.65;;;11.10;99.90;;;;;;4997039;28;20505;-91
2023/12/28 12:20:49;;;;;;;17.95;2.35;;;11.10;99.90;;;;;;5013188;28;20052;-91
2023/12/28 12:23:15;;;;;;;12.57;1.65;;;11.10;99.90;;;;;;4996468;28;20088;-91
2023/12/28 12:25:49;;;;;;;10.05;1.83;;;11.00;99.90;;;;;;5012379;28;20095;-92
2023/12/28 12:28:20;;;;;;;15.45;2.38;;;11.00;99.90;;;;;;5012534;28;20072;-91
2023/12/28 12:30:58;;;;;;;9.98;1.52;;;11.00;99.90;;;;;;4994978;28;20037;-92
2023/12/28 12:33:25;;;;;;;9.32;1.77;;;11.00;99.90;;;;;;5013774;28;20038;-91
2023/12/28 12:35:51;;;;;;;15.52;1.98;;;11.00;99.90;;;;;;5031377;28;20025;-91
2023/12/28 12:38:17;;;;;;;8.82;1.55;;;11.00;99.90;;;;;;5030183;28;20465;-90
2023/12/28 12:40:43;;;;;;;6.85;1.33;;;11.00;99.90;;;;;;5012582;28;20053;-91
2023/12/28 12:43:09;;;;;;;12.90;2.80;;;11.00;99.90;;;;;;4994004;28;20099;-91
2023/12/28 12:45:36;;;;;;;10.73;1.75;;;11.10;99.90;;;;;;4995523;28;20132;-91